createdAt,value
2018-08-24T00:02:20.161Z,87.10
2018-08-24T00:05:00.828Z,87.10
2018-08-24T00:07:42.281Z,87.30
2018-08-24T00:10:23.085Z,87.20
2018-08-24T00:13:03.907Z,87.00
2018-08-24T00:15:45.433Z,86.60
2018-08-24T00:18:27.103Z,86.30
2018-08-24T00:21:09.044Z,86.10
2018-08-24T00:23:49.953Z,85.60
2018-08-24T00:26:31.476Z,85.50
2018-08-24T00:29:12.471Z,85.00
2018-08-24T00:31:53.700Z,85.30
2018-08-24T00:34:34.225Z,85.30
2018-08-24T00:37:14.874Z,85.40
2018-08-24T00:39:55.436Z,85.40
2018-08-24T00:42:36.925Z,85.40
2018-08-24T00:45:17.637Z,85.40
2018-08-24T00:47:59.217Z,85.40
2018-08-24T00:50:40.731Z,85.40
2018-08-24T00:53:21.476Z,85.20
2018-08-24T00:56:02.946Z,84.70
2018-08-24T00:58:43.553Z,84.50
2018-08-24T01:01:24.303Z,84.30
2018-08-24T01:04:05.033Z,84.00
2018-08-24T01:06:45.850Z,82.80
2018-08-24T01:09:26.469Z,82.50
2018-08-24T01:12:12.488Z,80.10
2018-08-24T01:14:53.857Z,79.10
2018-08-24T01:17:39.634Z,79.10
2018-08-24T01:20:25.197Z,78.70
2018-08-24T01:23:06.631Z,78.70
2018-08-24T01:25:47.385Z,78.40
2018-08-24T01:28:28.035Z,78.60
2018-08-24T01:31:09.844Z,78.60
2018-08-24T01:33:51.290Z,78.70
2018-08-24T01:36:31.945Z,78.60
2018-08-24T01:39:13.501Z,78.80
2018-08-24T01:41:54.942Z,79.00
2018-08-24T01:44:36.755Z,79.20
2018-08-24T01:47:18.179Z,79.40
2018-08-24T01:49:59.638Z,79.70
2018-08-24T01:52:41.154Z,79.80
2018-08-24T01:55:21.788Z,80.40
2018-08-24T01:58:03.961Z,80.90
2018-08-24T02:00:44.824Z,81.20
2018-08-24T02:03:25.547Z,82.80
2018-08-24T02:06:07.874Z,83.50
2018-08-24T02:08:48.540Z,84.40
2018-08-24T02:11:33.458Z,85.60
2018-08-24T02:14:19.718Z,86.00
2018-08-24T02:17:01.205Z,86.50
2018-08-24T02:19:46.925Z,87.30
2018-08-24T02:22:27.527Z,86.90
2018-08-24T02:25:08.234Z,86.90
2018-08-24T02:27:49.464Z,86.90
2018-08-24T02:30:31.145Z,87.20
2018-08-24T02:33:12.059Z,87.40
2018-08-24T02:35:53.550Z,87.40
2018-08-24T02:38:35.054Z,87.70
2018-08-24T02:41:16.446Z,87.80
2018-08-24T02:43:57.174Z,88.10
2018-08-24T02:46:39.146Z,88.20
2018-08-24T02:49:20.564Z,88.30
2018-08-24T02:52:01.173Z,88.30
2018-08-24T02:54:42.670Z,88.30
2018-08-24T02:57:24.276Z,88.40
2018-08-24T03:00:05.713Z,88.40
2018-08-24T03:02:46.269Z,88.50
2018-08-24T03:05:27.127Z,88.40
2018-08-24T03:08:07.620Z,88.20
2018-08-24T03:10:48.235Z,87.80
2018-08-24T03:13:29.514Z,88.20
2018-08-24T03:16:10.816Z,89.00
2018-08-24T03:18:52.156Z,89.20
2018-08-24T03:21:32.801Z,89.30
2018-08-24T03:24:13.404Z,89.20
2018-08-24T03:26:53.942Z,89.20
2018-08-24T03:29:34.461Z,89.60
2018-08-24T03:32:15.813Z,89.70
2018-08-24T03:34:56.393Z,89.80
2018-08-24T03:37:37.048Z,89.90
2018-08-24T03:40:17.548Z,90.00
2018-08-24T03:42:58.321Z,90.00
2018-08-24T03:45:39.738Z,90.00
2018-08-24T03:48:20.302Z,90.00
2018-08-24T03:51:01.041Z,90.00
2018-08-24T03:53:42.414Z,90.00
2018-08-24T03:56:22.919Z,90.00
2018-08-24T03:59:03.597Z,90.00
2018-08-24T04:01:45.104Z,90.00
2018-08-24T04:04:26.610Z,90.00
2018-08-24T04:07:07.337Z,90.00
2018-08-24T04:09:47.900Z,90.00
2018-08-24T04:12:28.607Z,90.00
2018-08-24T04:15:09.945Z,90.00
2018-08-24T04:17:51.374Z,90.00
2018-08-24T04:20:32.305Z,89.90
2018-08-24T04:23:13.678Z,89.80
2018-08-24T04:25:54.577Z,89.40
2018-08-24T04:28:36.030Z,89.40
2018-08-24T04:31:17.409Z,89.30
2018-08-24T04:33:58.147Z,89.40
2018-08-24T04:36:39.570Z,89.60
2018-08-24T04:39:20.295Z,89.60
2018-08-24T04:42:01.713Z,89.80
2018-08-24T04:44:42.469Z,89.90
2018-08-24T04:47:23.094Z,89.90
2018-08-24T04:50:04.589Z,90.00
2018-08-24T04:52:45.173Z,90.10
2018-08-24T04:55:26.609Z,90.20
2018-08-24T04:58:07.162Z,90.20
2018-08-24T05:00:47.821Z,90.20
2018-08-24T05:03:28.420Z,90.20
2018-08-24T05:06:08.931Z,90.20
2018-08-24T05:08:50.213Z,90.20
2018-08-24T05:11:31.278Z,90.10
2018-08-24T05:14:12.058Z,90.20
2018-08-24T05:16:53.205Z,90.30
2018-08-24T05:19:34.669Z,90.30
2018-08-24T05:22:15.238Z,90.40
2018-08-24T05:24:55.859Z,90.40
2018-08-24T05:27:36.404Z,90.40
2018-08-24T05:30:17.858Z,90.60
2018-08-24T05:32:58.416Z,90.60
2018-08-24T05:35:39.204Z,90.60
2018-08-24T05:38:20.817Z,90.60
2018-08-24T05:41:02.062Z,90.30
2018-08-24T05:43:43.530Z,90.20
2018-08-24T05:46:24.234Z,87.30
2018-08-24T05:49:04.909Z,80.60
2018-08-24T05:51:45.522Z,79.60
2018-08-24T05:54:26.224Z,79.00
2018-08-24T05:57:07.664Z,78.10
2018-08-24T05:59:49.189Z,78.00
2018-08-24T06:02:30.519Z,77.40
2018-08-24T06:05:11.200Z,77.40
2018-08-24T06:07:51.763Z,76.60
2018-08-24T06:10:32.272Z,76.40
2018-08-24T06:13:16.758Z,76.00
2018-08-24T06:15:57.857Z,76.10
2018-08-24T06:18:39.170Z,75.40
2018-08-24T06:21:20.687Z,74.20
2018-08-24T06:24:01.459Z,73.00
2018-08-24T06:26:43.182Z,72.40
2018-08-24T06:29:24.629Z,71.10
2018-08-24T06:32:05.874Z,70.50
2018-08-24T06:34:46.501Z,69.80
2018-08-24T06:37:27.269Z,69.80
2018-08-24T06:40:08.929Z,69.70
2018-08-24T06:42:50.355Z,69.70
2018-08-24T06:45:30.990Z,69.50
2018-08-24T06:48:12.552Z,69.30
2018-08-24T06:50:53.099Z,69.00
2018-08-24T06:53:34.633Z,67.50
2018-08-24T06:56:16.046Z,67.50
2018-08-24T06:58:57.566Z,67.40
2018-08-24T07:01:38.316Z,72.30
2018-08-24T07:04:18.906Z,76.30
2018-08-24T07:07:00.342Z,76.30
2018-08-24T07:09:40.908Z,76.00
2018-08-24T07:12:21.539Z,76.00
2018-08-24T07:15:02.136Z,71.70
2018-08-24T07:18:03.061Z,75.60
2018-08-24T07:20:44.457Z,76.00
2018-08-24T07:23:24.977Z,76.50
2018-08-24T07:26:05.572Z,77.20
2018-08-24T07:28:47.017Z,77.90
2018-08-24T07:31:27.631Z,78.20
2018-08-24T07:34:08.984Z,78.20
2018-08-24T07:36:50.059Z,78.20
2018-08-24T07:39:31.389Z,77.90
2018-08-24T07:42:12.785Z,77.40
2018-08-24T07:44:54.586Z,77.60
2018-08-24T07:47:35.974Z,77.10
2018-08-24T07:50:17.529Z,77.40
2018-08-24T07:52:58.214Z,77.40
2018-08-24T07:55:38.896Z,77.10
2018-08-24T07:58:20.487Z,76.00
2018-08-24T08:01:02.039Z,76.10
2018-08-24T08:03:43.528Z,75.10
2018-08-24T08:06:24.128Z,75.00
2018-08-24T08:09:04.958Z,74.10
2018-08-24T08:11:45.446Z,74.30
2018-08-24T08:14:26.140Z,74.10
2018-08-24T08:17:06.721Z,72.40
2018-08-24T08:19:48.198Z,71.20
2018-08-24T08:22:28.924Z,69.90
2018-08-24T08:25:10.446Z,69.00
2018-08-24T08:27:51.702Z,68.20
2018-08-24T08:30:32.630Z,67.60
2018-08-24T08:33:13.220Z,67.60
2018-08-24T08:35:54.756Z,66.80
2018-08-24T08:38:35.491Z,66.90
2018-08-24T08:41:17.187Z,67.20
2018-08-24T08:43:58.687Z,66.30
2018-08-24T08:46:39.411Z,66.30
2018-08-24T08:49:20.939Z,66.70
2018-08-24T08:52:02.485Z,66.10
2018-08-24T08:54:44.057Z,65.90
2018-08-24T08:57:25.501Z,65.80
2018-08-24T09:00:06.357Z,65.10
2018-08-24T09:02:46.892Z,64.20
2018-08-24T09:05:27.624Z,64.60
2018-08-24T09:08:09.062Z,64.90
2018-08-24T09:10:49.656Z,65.10
2018-08-24T09:13:31.040Z,65.20
2018-08-24T09:16:11.974Z,65.90
2018-08-24T09:18:57.711Z,65.60
2018-08-24T09:21:44.299Z,65.10
2018-08-24T09:24:30.884Z,65.10
2018-08-24T09:27:17.327Z,65.00
2018-08-24T09:30:01.797Z,65.50
2018-08-24T09:32:42.667Z,64.70
2018-08-24T09:35:23.135Z,64.60
2018-08-24T09:38:03.820Z,64.30
2018-08-24T09:40:50.398Z,63.40
2018-08-24T09:43:36.904Z,62.50
2018-08-24T09:46:18.193Z,62.60
2018-08-24T09:49:04.043Z,61.20
2018-08-24T09:51:45.934Z,61.30
2018-08-24T09:54:26.894Z,61.90
2018-08-24T09:57:07.621Z,62.10
2018-08-24T09:59:49.106Z,62.20
2018-08-24T10:02:34.708Z,63.00
2018-08-24T10:05:21.194Z,64.20
2018-08-24T10:08:07.735Z,64.10
2018-08-24T10:10:49.117Z,64.40
2018-08-24T10:13:32.259Z,65.50
2018-08-24T10:16:13.675Z,63.40
2018-08-24T10:18:55.240Z,61.30
2018-08-24T10:21:35.779Z,60.90
2018-08-24T10:24:16.253Z,60.30
2018-08-24T10:26:56.890Z,60.10
2018-08-24T10:29:37.803Z,59.90
2018-08-24T10:32:19.077Z,59.70
2018-08-24T10:35:00.504Z,59.00
2018-08-24T10:37:42.262Z,58.90
2018-08-24T10:40:23.669Z,58.80
2018-08-24T10:43:04.212Z,59.70
2018-08-24T10:45:44.862Z,59.80
2018-08-24T10:48:25.409Z,60.10
2018-08-24T10:51:06.191Z,59.10
2018-08-24T10:53:47.673Z,60.00
2018-08-24T10:56:29.010Z,59.90
2018-08-24T10:59:09.539Z,59.60
2018-08-24T11:01:50.307Z,59.90
2018-08-24T11:04:31.882Z,59.30
2018-08-24T11:07:12.622Z,59.60
2018-08-24T11:09:53.909Z,58.70
2018-08-24T11:12:35.878Z,58.90
2018-08-24T11:15:16.990Z,58.50
2018-08-24T11:18:02.770Z,59.90
2018-08-24T11:20:43.302Z,60.40
2018-08-24T11:23:23.990Z,60.10
2018-08-24T11:26:05.058Z,60.50
2018-08-24T11:28:46.184Z,59.80
2018-08-24T11:31:30.408Z,61.00
2018-08-24T11:34:11.273Z,60.50
2018-08-24T11:36:51.893Z,60.10
2018-08-24T11:39:32.434Z,61.10
2018-08-24T11:42:13.179Z,61.40
2018-08-24T11:44:53.723Z,61.40
2018-08-24T11:47:34.246Z,61.60
2018-08-24T11:50:14.898Z,61.80
2018-08-24T11:52:55.602Z,61.40
2018-08-24T11:55:36.189Z,61.00
2018-08-24T11:58:16.815Z,61.40
2018-08-24T12:00:58.365Z,61.10
2018-08-24T12:03:39.743Z,61.60
2018-08-24T12:06:20.302Z,61.80
2018-08-24T12:09:01.802Z,62.30
2018-08-24T12:11:43.365Z,62.20
2018-08-24T12:14:24.846Z,61.20
2018-08-24T12:17:07.841Z,61.60
2018-08-24T12:19:49.077Z,61.30
2018-08-24T12:22:30.510Z,61.50
2018-08-24T12:25:12.026Z,61.00
2018-08-24T12:27:52.621Z,59.90
2018-08-24T12:30:34.133Z,59.90
2018-08-24T12:33:14.793Z,59.90
2018-08-24T12:35:55.745Z,60.00
2018-08-24T12:38:36.949Z,61.00
2018-08-24T12:41:17.543Z,61.10
2018-08-24T12:43:58.171Z,60.80
2018-08-24T12:46:38.918Z,60.50
2018-08-24T12:49:20.185Z,60.80
2018-08-24T12:52:01.265Z,61.00
2018-08-24T12:54:42.563Z,61.00
2018-08-24T12:57:26.933Z,60.60
2018-08-24T13:00:08.387Z,60.60
2018-08-24T13:02:49.554Z,60.40
2018-08-24T13:05:30.101Z,60.30
2018-08-24T13:08:11.601Z,59.50
2018-08-24T13:10:52.931Z,59.00
2018-08-24T13:13:33.541Z,58.50
2018-08-24T13:16:15.025Z,57.70
2018-08-24T13:18:55.576Z,57.80
2018-08-24T13:21:36.143Z,57.50
2018-08-24T13:24:17.670Z,57.70
2018-08-24T13:26:58.356Z,57.50
2018-08-24T13:29:40.014Z,57.60
2018-08-24T13:32:21.319Z,56.70
2018-08-24T13:35:02.733Z,57.30
2018-08-24T13:37:44.238Z,56.80
2018-08-24T13:40:24.934Z,55.90
2018-08-24T13:43:06.756Z,55.00
2018-08-24T13:45:48.242Z,55.10
2018-08-24T13:48:29.585Z,55.70
2018-08-24T13:51:10.176Z,55.40
2018-08-24T13:53:50.885Z,55.40
2018-08-24T13:56:32.354Z,55.90
2018-08-24T13:59:13.832Z,55.30
2018-08-24T14:01:55.350Z,55.10
2018-08-24T14:04:35.906Z,53.90
2018-08-24T14:07:16.624Z,54.40
2018-08-24T14:09:58.058Z,55.40
2018-08-24T14:12:38.563Z,55.10
2018-08-24T14:15:19.109Z,54.70
2018-08-24T14:18:00.026Z,54.20
2018-08-24T14:20:41.246Z,54.00
2018-08-24T14:23:21.970Z,54.80
2018-08-24T14:26:02.705Z,55.60
2018-08-24T14:28:44.005Z,56.50
2018-08-24T14:31:25.145Z,56.70
2018-08-24T14:34:06.085Z,56.50
2018-08-24T14:36:46.689Z,56.50
2018-08-24T14:39:27.245Z,57.60
2018-08-24T14:42:07.886Z,57.70
2018-08-24T14:44:48.369Z,57.50
2018-08-24T14:47:29.872Z,59.00
2018-08-24T14:50:10.577Z,58.60
2018-08-24T14:52:52.149Z,58.90
2018-08-24T14:55:32.753Z,60.10
2018-08-24T14:58:14.151Z,59.90
2018-08-24T15:00:54.802Z,60.40
2018-08-24T15:03:36.348Z,60.50
2018-08-24T15:06:16.959Z,61.10
2018-08-24T15:08:58.501Z,60.70
2018-08-24T15:11:40.300Z,60.90
2018-08-24T15:14:21.517Z,60.50
2018-08-24T15:17:02.442Z,61.30
2018-08-24T15:19:43.773Z,59.80
2018-08-24T15:22:24.938Z,59.90
2018-08-24T15:25:05.998Z,61.00
2018-08-24T15:27:47.428Z,61.80
2018-08-24T15:30:27.999Z,61.20
2018-08-24T15:33:08.669Z,62.30
2018-08-24T15:35:50.144Z,62.70
2018-08-24T15:38:30.858Z,62.80
2018-08-24T15:41:11.389Z,63.30
2018-08-24T15:43:51.974Z,63.80
2018-08-24T15:46:32.910Z,63.40
2018-08-24T15:49:14.270Z,63.70
2018-08-24T15:51:56.726Z,63.90
2018-08-24T15:54:37.413Z,64.60
2018-08-24T15:57:18.918Z,65.00
2018-08-24T15:59:59.619Z,65.40
2018-08-24T16:02:41.112Z,65.20
2018-08-24T16:05:21.916Z,65.80
2018-08-24T16:08:03.288Z,65.70
2018-08-24T16:10:44.765Z,65.60
2018-08-24T16:13:25.506Z,65.70
2018-08-24T16:16:07.600Z,65.50
2018-08-24T16:18:48.552Z,65.40
2018-08-24T16:21:29.078Z,66.40
2018-08-24T16:24:09.737Z,67.10
2018-08-24T16:26:50.441Z,67.20
2018-08-24T16:29:36.072Z,68.40
2018-08-24T16:32:17.542Z,68.60
2018-08-24T16:34:58.273Z,69.10
2018-08-24T16:37:39.712Z,69.70
2018-08-24T16:40:20.288Z,68.80
2018-08-24T16:43:00.875Z,68.50
2018-08-24T16:45:42.390Z,68.40
2018-08-24T16:48:23.066Z,69.40
2018-08-24T16:51:03.780Z,69.80
2018-08-24T16:53:45.465Z,70.20
2018-08-24T16:56:27.023Z,70.80
2018-08-24T16:59:08.487Z,71.20
2018-08-24T17:01:49.989Z,71.10
2018-08-24T17:04:31.529Z,70.80
2018-08-24T17:07:12.024Z,71.40
2018-08-24T17:09:52.562Z,71.80
2018-08-24T17:12:33.888Z,72.70
2018-08-24T17:15:14.786Z,73.30
2018-08-24T17:17:56.930Z,72.00
2018-08-24T17:20:38.334Z,72.40
2018-08-24T17:23:19.479Z,72.50
2018-08-24T17:26:00.099Z,72.60
2018-08-24T17:28:40.829Z,72.30
2018-08-24T17:31:22.222Z,72.10
2018-08-24T17:34:03.790Z,72.40
2018-08-24T17:36:45.082Z,73.00
2018-08-24T17:39:25.722Z,72.90
2018-08-24T17:42:07.906Z,73.00
2018-08-24T17:44:48.990Z,73.40
2018-08-24T17:47:29.729Z,73.40
2018-08-24T17:50:11.176Z,73.30
2018-08-24T17:52:52.787Z,73.80
2018-08-24T17:55:34.242Z,74.10
2018-08-24T17:58:15.677Z,74.30
2018-08-24T18:00:56.339Z,74.30
2018-08-24T18:03:36.941Z,74.20
2018-08-24T18:06:17.906Z,74.90
2018-08-24T18:08:59.465Z,75.40
2018-08-24T18:11:41.643Z,76.20
2018-08-24T18:14:22.233Z,76.20
2018-08-24T18:17:03.073Z,75.30
2018-08-24T18:19:44.356Z,75.10
2018-08-24T18:22:25.093Z,75.30
2018-08-24T18:25:05.708Z,75.70
2018-08-24T18:27:46.231Z,76.00
2018-08-24T18:30:26.881Z,76.10
2018-08-24T18:33:08.492Z,76.50
2018-08-24T18:35:49.858Z,76.90
2018-08-24T18:38:30.456Z,77.00
2018-08-24T18:41:11.943Z,76.80
2018-08-24T18:43:52.464Z,76.90
2018-08-24T18:46:33.111Z,77.10
2018-08-24T18:49:13.642Z,77.40
2018-08-24T18:51:54.314Z,77.30
2018-08-24T18:54:35.758Z,77.70
2018-08-24T18:57:16.438Z,77.70
2018-08-24T18:59:57.496Z,77.60
2018-08-24T19:02:38.757Z,78.20
2018-08-24T19:05:20.219Z,78.30
2018-08-24T19:08:06.199Z,78.40
2018-08-24T19:10:52.573Z,78.50
2018-08-24T19:13:33.883Z,78.50
2018-08-24T19:16:14.366Z,78.20
2018-08-24T19:19:00.018Z,78.40
2018-08-24T19:21:41.877Z,78.80
2018-08-24T19:24:23.067Z,79.00
2018-08-24T19:27:05.384Z,78.80
2018-08-24T19:29:51.186Z,78.20
2018-08-24T19:32:33.272Z,78.30
2018-08-24T19:35:14.234Z,78.10
2018-08-24T19:37:54.877Z,78.10
2018-08-24T19:40:40.379Z,77.80
2018-08-24T19:43:21.122Z,77.60
2018-08-24T19:46:02.635Z,77.60
2018-08-24T19:48:49.494Z,77.70
2018-08-24T19:51:30.582Z,77.80
2018-08-24T19:54:11.490Z,78.00
2018-08-24T19:56:52.986Z,78.20
2018-08-24T19:59:33.528Z,78.30
2018-08-24T20:02:14.057Z,78.50
2018-08-24T20:04:55.537Z,79.00
2018-08-24T20:07:41.472Z,79.20
2018-08-24T20:10:22.849Z,79.10
2018-08-24T20:13:03.520Z,79.40
2018-08-24T20:15:49.030Z,79.50
2018-08-24T20:18:29.752Z,79.50
2018-08-24T20:21:11.205Z,79.50
2018-08-24T20:23:51.763Z,79.80
2018-08-24T20:26:32.432Z,79.80
2018-08-24T20:29:13.137Z,79.70
2018-08-24T20:31:53.782Z,79.80
2018-08-24T20:34:35.293Z,80.00
2018-08-24T20:37:15.811Z,79.90
2018-08-24T20:39:56.458Z,79.60
2018-08-24T20:42:36.990Z,79.60
2018-08-24T20:45:17.553Z,79.60
2018-08-24T20:47:58.085Z,80.20
2018-08-24T20:50:38.700Z,79.50
2018-08-24T20:53:20.147Z,79.10
2018-08-24T20:56:00.668Z,78.90
2018-08-24T20:58:41.380Z,78.50
2018-08-24T21:01:22.265Z,78.20
2018-08-24T21:04:03.791Z,78.00
2018-08-24T21:06:45.049Z,77.90
2018-08-24T21:09:26.558Z,77.80
2018-08-24T21:12:07.743Z,77.90
2018-08-24T21:14:48.746Z,77.80
2018-08-24T21:17:29.521Z,78.10
2018-08-24T21:20:11.203Z,78.10
2018-08-24T21:22:51.749Z,77.80
2018-08-24T21:25:32.314Z,77.60
2018-08-24T21:28:13.777Z,77.40
2018-08-24T21:30:54.381Z,78.60
2018-08-24T21:33:35.034Z,78.20
2018-08-24T21:36:16.494Z,78.30
2018-08-24T21:38:58.118Z,78.50
2018-08-24T21:41:40.229Z,78.80
2018-08-24T21:44:21.413Z,79.10
2018-08-24T21:47:02.174Z,79.20
2018-08-24T21:49:43.043Z,79.30
2018-08-24T21:52:24.423Z,79.50
2018-08-24T21:55:05.082Z,79.80
2018-08-24T21:57:46.541Z,80.00
2018-08-24T22:00:27.162Z,80.00
2018-08-24T22:03:08.061Z,80.00
2018-08-24T22:05:49.329Z,80.00
2018-08-24T22:08:30.842Z,80.10
2018-08-24T22:11:12.238Z,81.20
2018-08-24T22:13:53.665Z,81.70
2018-08-24T22:16:34.529Z,82.20
2018-08-24T22:19:15.966Z,82.10
2018-08-24T22:21:56.698Z,82.10
2018-08-24T22:24:38.185Z,82.10
2018-08-24T22:27:18.737Z,82.40
2018-08-24T22:29:59.505Z,82.50
2018-08-24T22:32:40.844Z,82.50
2018-08-24T22:35:22.238Z,82.60
2018-08-24T22:38:02.755Z,82.50
2018-08-24T22:40:43.457Z,82.60
2018-08-24T22:43:29.173Z,82.60
2018-08-24T22:46:10.633Z,82.50
2018-08-24T22:48:51.362Z,83.00
2018-08-24T22:51:31.939Z,83.20
2018-08-24T22:54:12.546Z,84.10
2018-08-24T22:56:53.221Z,83.50
2018-08-24T22:59:34.586Z,83.30
2018-08-24T23:02:15.125Z,83.60
2018-08-24T23:04:55.748Z,83.50
2018-08-24T23:07:36.394Z,83.80
2018-08-24T23:10:17.918Z,83.70
2018-08-24T23:12:58.568Z,83.60
2018-08-24T23:15:39.194Z,83.60
2018-08-24T23:18:19.731Z,83.70
2018-08-24T23:21:01.269Z,83.80
2018-08-24T23:23:41.833Z,83.60
2018-08-24T23:26:22.602Z,83.80
2018-08-24T23:29:04.170Z,84.00
2018-08-24T23:31:44.669Z,84.60
2018-08-24T23:34:26.156Z,84.80
2018-08-24T23:37:07.124Z,85.30
2018-08-24T23:39:48.449Z,86.10
2018-08-24T23:42:29.084Z,85.20
2018-08-24T23:45:09.711Z,85.80
2018-08-24T23:47:51.041Z,84.70
2018-08-24T23:50:31.677Z,85.00
2018-08-24T23:53:12.665Z,85.00
2018-08-24T23:55:53.809Z,84.80
2018-08-24T23:58:34.399Z,84.70
